Aviation Digital Data Service (ADDS)

Output produced by METARs form (0548 UTC 19 August 2019)
found at http://www.aviationweather.gov/metar/data/
 
METAR text: RJFO 190500Z VRB02KT 9000 FEW015 SCT040 BKN150 26/24 Q1008
Conditions at: RJFO (OITA AIRPORT , JP) observed 0500 UTC 19 August 2019
Temperature: 26.0°C (79°F)
Dewpoint: 24.0°C (75°F) [RH = 89%]
Pressure (altimeter): 29.76 inches Hg (1008.0 mb)
Winds: variable direction winds at 2 MPH (2 knots; 1.0 m/s)
Visibility: 6 miles ( 9 km)
Ceiling: 15000 feet AGL
Clouds: few clouds at 1500 feet AGL
scattered clouds at 4000 feet AGL
broken clouds at 15000 feet AGL
Weather: no significant weather observed at this time

METAR text: RJFO 190400Z 21005KT 8000 -SHRA FEW005 SCT040 BKN110 26/25 Q1009
Conditions at: RJFO (OITA AIRPORT , JP) observed 0400 UTC 19 August 2019
Temperature: 26.0°C (79°F)
Dewpoint: 25.0°C (77°F) [RH = 94%]
Pressure (altimeter): 29.79 inches Hg (1009.0 mb)
Winds: from the SSW (210 degrees) at 6 MPH (5 knots; 2.6 m/s)
Visibility: 5 miles ( 8 km)
Ceiling: 11000 feet AGL
Clouds: few clouds at 500 feet AGL
scattered clouds at 4000 feet AGL
broken clouds at 11000 feet AGL
Weather: -SHRA  (light rain showers)

METAR text: RJFO 190300Z 10006KT 3000 SHRA BR FEW001 SCT015 BKN025 25/25 Q1008
Conditions at: RJFO (OITA AIRPORT , JP) observed 0300 UTC 19 August 2019
Temperature: 25.0°C (77°F)
Dewpoint: 25.0°C (77°F) [RH = 100%]
Pressure (altimeter): 29.76 inches Hg (1008.0 mb)
Winds: from the E (100 degrees) at 7 MPH (6 knots; 3.1 m/s)
Visibility: 1.86 miles (2.99 km)
Ceiling: 2500 feet AGL
Clouds: few clouds at 100 feet AGL
scattered clouds at 1500 feet AGL
broken clouds at 2500 feet AGL
Weather: SHRA BR  (rain showers, mist)

METAR text: RJFO 190200Z 16006KT 3000 -SHRA BR FEW001 SCT003 BKN025 25/25 Q1010
Conditions at: RJFO (OITA AIRPORT , JP) observed 0200 UTC 19 August 2019
Temperature: 25.0°C (77°F)
Dewpoint: 25.0°C (77°F) [RH = 100%]
Pressure (altimeter): 29.82 inches Hg (1010.0 mb)
Winds: from the SSE (160 degrees) at 7 MPH (6 knots; 3.1 m/s)
Visibility: 1.86 miles (2.99 km)
Ceiling: 2500 feet AGL
Clouds: few clouds at 100 feet AGL
scattered clouds at 300 feet AGL
broken clouds at 2500 feet AGL
Weather: -SHRA BR  (light rain showers, mist)

METAR text: RJFO 190100Z 16005KT 1600 SHRA BR FEW002 BKN004 BKN006 26/26 Q1009
Conditions at: RJFO (OITA AIRPORT , JP) observed 0100 UTC 19 August 2019
Temperature: 26.0°C (79°F)
Dewpoint: 26.0°C (79°F) [RH = 100%]
Pressure (altimeter): 29.79 inches Hg (1009.0 mb)
Winds: from the SSE (160 degrees) at 6 MPH (5 knots; 2.6 m/s)
Visibility: 0.99 miles (1.59 km)
Ceiling: 400 feet AGL
Clouds: few clouds at 200 feet AGL
broken clouds at 400 feet AGL
broken clouds at 600 feet AGL
Weather: SHRA BR  (rain showers, mist)

METAR text: RJFO 190000Z VRB02KT 5000 -SHRA BR FEW003 SCT008 BKN010 26/25 Q1009
Conditions at: RJFO (OITA AIRPORT , JP) observed 0000 UTC 19 August 2019
Temperature: 26.0°C (79°F)
Dewpoint: 25.0°C (77°F) [RH = 94%]
Pressure (altimeter): 29.79 inches Hg (1009.0 mb)
Winds: variable direction winds at 2 MPH (2 knots; 1.0 m/s)
Visibility: 3 miles ( 5 km)
Ceiling: 1000 feet AGL
Clouds: few clouds at 300 feet AGL
scattered clouds at 800 feet AGL
broken clouds at 1000 feet AGL
Weather: -SHRA BR  (light rain showers, mist)

METAR text: RJFO 182300Z VRB01KT 5000 BR FEW005 BKN009 BKN010 26/25 Q1008
Conditions at: RJFO (OITA AIRPORT , JP) observed 2300 UTC 18 August 2019
Temperature: 26.0°C (79°F)
Dewpoint: 25.0°C (77°F) [RH = 94%]
Pressure (altimeter): 29.76 inches Hg (1008.0 mb)
Winds: variable direction winds at 1 MPH (1 knots; 0.5 m/s)
Visibility: 3 miles ( 5 km)
Ceiling: 900 feet AGL
Clouds: few clouds at 500 feet AGL
broken clouds at 900 feet AGL
broken clouds at 1000 feet AGL
Weather: BR  (mist)

METAR text: RJFO 182200Z VRB01KT 4500 BR FEW007 BKN010 BKN120 26/25 Q1008
Conditions at: RJFO (OITA AIRPORT , JP) observed 2200 UTC 18 August 2019
Temperature: 26.0°C (79°F)
Dewpoint: 25.0°C (77°F) [RH = 94%]
Pressure (altimeter): 29.76 inches Hg (1008.0 mb)
Winds: variable direction winds at 1 MPH (1 knots; 0.5 m/s)
Visibility: 2.80 miles (4.51 km)
Ceiling: 1000 feet AGL
Clouds: few clouds at 700 feet AGL
broken clouds at 1000 feet AGL
broken clouds at 12000 feet AGL
Weather: BR  (mist)

METAR text: RJFO 181300Z VRB02KT 7000 FEW030 SCT130 BKN/// 26/25 Q1007
Conditions at: RJFO (OITA AIRPORT , JP) observed 1300 UTC 18 August 2019
Temperature: 26.0°C (79°F)
Dewpoint: 25.0°C (77°F) [RH = 94%]
Pressure (altimeter): 29.73 inches Hg (1007.0 mb)
Winds: variable direction winds at 2 MPH (2 knots; 1.0 m/s)
Visibility: 4 miles ( 7 km)
Ceiling: at least 12,000 feet AGL
Clouds: few clouds at 3000 feet AGL
scattered clouds at 13000 feet AGL
Weather: no significant weather observed at this time

METAR text: RJFO 181200Z 24003KT 8000 FEW030 SCT/// 26/25 Q1007
Conditions at: RJFO (OITA AIRPORT , JP) observed 1200 UTC 18 August 2019
Temperature: 26.0°C (79°F)
Dewpoint: 25.0°C (77°F) [RH = 94%]
Pressure (altimeter): 29.73 inches Hg (1007.0 mb)
Winds: from the WSW (240 degrees) at 3 MPH (3 knots; 1.5 m/s)
Visibility: 5 miles ( 8 km)
Ceiling: at least 12,000 feet AGL
Clouds: few clouds at 3000 feet AGL
Weather: no significant weather observed at this time

METAR text: RJFO 181100Z VRB01KT 9000 FEW030 SCT150 BKN/// 26/25 Q1006
Conditions at: RJFO (OITA AIRPORT , JP) observed 1100 UTC 18 August 2019
Temperature: 26.0°C (79°F)
Dewpoint: 25.0°C (77°F) [RH = 94%]
Pressure (altimeter): 29.70 inches Hg (1006.0 mb)
Winds: variable direction winds at 1 MPH (1 knots; 0.5 m/s)
Visibility: 6 miles ( 9 km)
Ceiling: at least 12,000 feet AGL
Clouds: few clouds at 3000 feet AGL
scattered clouds at 15000 feet AGL
Weather: no significant weather observed at this time

METAR text: RJFO 181000Z VRB02KT 9000 FEW030 SCT150 BKN/// 27/25 Q1006
Conditions at: RJFO (OITA AIRPORT , JP) observed 1000 UTC 18 August 2019
Temperature: 27.0°C (81°F)
Dewpoint: 25.0°C (77°F) [RH = 89%]
Pressure (altimeter): 29.70 inches Hg (1006.0 mb)
Winds: variable direction winds at 2 MPH (2 knots; 1.0 m/s)
Visibility: 6 miles ( 9 km)
Ceiling: at least 12,000 feet AGL
Clouds: few clouds at 3000 feet AGL
scattered clouds at 15000 feet AGL
Weather: no significant weather observed at this time

METAR text: RJFO 180900Z 01003KT 8000 FEW030 SCT160 BKN/// 27/25 Q1006
Conditions at: RJFO (OITA AIRPORT , JP) observed 0900 UTC 18 August 2019
Temperature: 27.0°C (81°F)
Dewpoint: 25.0°C (77°F) [RH = 89%]
Pressure (altimeter): 29.70 inches Hg (1006.0 mb)
Winds: from the N (10 degrees) at 3 MPH (3 knots; 1.5 m/s)
Visibility: 5 miles ( 8 km)
Ceiling: at least 12,000 feet AGL
Clouds: few clouds at 3000 feet AGL
scattered clouds at 16000 feet AGL
Weather: no significant weather observed at this time

METAR text: RJFO 180800Z VRB02KT 9000 FEW030 BKN160 BKN/// 27/26 Q1006
Conditions at: RJFO (OITA AIRPORT , JP) observed 0800 UTC 18 August 2019
Temperature: 27.0°C (81°F)
Dewpoint: 26.0°C (79°F) [RH = 94%]
Pressure (altimeter): 29.70 inches Hg (1006.0 mb)
Winds: variable direction winds at 2 MPH (2 knots; 1.0 m/s)
Visibility: 6 miles ( 9 km)
Ceiling: 16000 feet AGL
Clouds: few clouds at 3000 feet AGL
broken clouds at 16000 feet AGL
Weather: no significant weather observed at this time

METAR text: RJFO 180700Z 06003KT 010V090 8000 FEW030 SCT160 BKN180 28/25 Q1006
Conditions at: RJFO (OITA AIRPORT , JP) observed 0700 UTC 18 August 2019
Temperature: 28.0°C (82°F)
Dewpoint: 25.0°C (77°F) [RH = 84%]
Pressure (altimeter): 29.70 inches Hg (1006.0 mb)
Winds: from the ENE (60 degrees) at 3 MPH (3 knots; 1.5 m/s)
Visibility: 5 miles ( 8 km)
Ceiling: 18000 feet AGL
Clouds: few clouds at 3000 feet AGL
scattered clouds at 16000 feet AGL
broken clouds at 18000 feet AGL
Weather: no significant weather observed at this time

METAR text: RJFO 180600Z 09003KT 060V130 8000 FEW030 BKN150 BKN180 27/26 Q1006
Conditions at: RJFO (OITA AIRPORT , JP) observed 0600 UTC 18 August 2019
Temperature: 27.0°C (81°F)
Dewpoint: 26.0°C (79°F) [RH = 94%]
Pressure (altimeter): 29.70 inches Hg (1006.0 mb)
Winds: from the E (90 degrees) at 3 MPH (3 knots; 1.5 m/s)
Visibility: 5 miles ( 8 km)
Ceiling: 15000 feet AGL
Clouds: few clouds at 3000 feet AGL
broken clouds at 15000 feet AGL
broken clouds at 18000 feet AGL
Weather: no significant weather observed at this time

METAR text: RJFO 180500Z 06004KT 020V080 8000 -RA FEW030 SCT150 BKN170 27/26 Q1006
Conditions at: RJFO (OITA AIRPORT , JP) observed 0500 UTC 18 August 2019
Temperature: 27.0°C (81°F)
Dewpoint: 26.0°C (79°F) [RH = 94%]
Pressure (altimeter): 29.70 inches Hg (1006.0 mb)
Winds: from the ENE (60 degrees) at 5 MPH (4 knots; 2.1 m/s)
Visibility: 5 miles ( 8 km)
Ceiling: 17000 feet AGL
Clouds: few clouds at 3000 feet AGL
scattered clouds at 15000 feet AGL
broken clouds at 17000 feet AGL
Weather: -RA  (light rain)

METAR text: RJFO 180400Z VRB02KT 9999 FEW030 SCT140 BKN160 28/25 Q1007
Conditions at: RJFO (OITA AIRPORT , JP) observed 0400 UTC 18 August 2019
Temperature: 28.0°C (82°F)
Dewpoint: 25.0°C (77°F) [RH = 84%]
Pressure (altimeter): 29.73 inches Hg (1007.0 mb)
Winds: variable direction winds at 2 MPH (2 knots; 1.0 m/s)
Visibility: 6 or more miles (10+ km)
Ceiling: 16000 feet AGL
Clouds: few clouds at 3000 feet AGL
scattered clouds at 14000 feet AGL
broken clouds at 16000 feet AGL
Weather: no significant weather observed at this time

METAR text: RJFO 180300Z VRB02KT 9999 FEW015 SCT050 BKN150 28/25 Q1007
Conditions at: RJFO (OITA AIRPORT , JP) observed 0300 UTC 18 August 2019
Temperature: 28.0°C (82°F)
Dewpoint: 25.0°C (77°F) [RH = 84%]
Pressure (altimeter): 29.73 inches Hg (1007.0 mb)
Winds: variable direction winds at 2 MPH (2 knots; 1.0 m/s)
Visibility: 6 or more miles (10+ km)
Ceiling: 15000 feet AGL
Clouds: few clouds at 1500 feet AGL
scattered clouds at 5000 feet AGL
broken clouds at 15000 feet AGL
Weather: no significant weather observed at this time

METAR text: RJFO 180200Z 18004KT 9999 FEW015 SCT160 BKN/// 28/26 Q1007
Conditions at: RJFO (OITA AIRPORT , JP) observed 0200 UTC 18 August 2019
Temperature: 28.0°C (82°F)
Dewpoint: 26.0°C (79°F) [RH = 89%]
Pressure (altimeter): 29.73 inches Hg (1007.0 mb)
Winds: from the S (180 degrees) at 5 MPH (4 knots; 2.1 m/s)
Visibility: 6 or more miles (10+ km)
Ceiling: at least 12,000 feet AGL
Clouds: few clouds at 1500 feet AGL
scattered clouds at 16000 feet AGL
Weather: no significant weather observed at this time

METAR text: RJFO 180100Z 16003KT 9000 FEW015 SCT160 BKN/// 27/26 Q1007
Conditions at: RJFO (OITA AIRPORT , JP) observed 0100 UTC 18 August 2019
Temperature: 27.0°C (81°F)
Dewpoint: 26.0°C (79°F) [RH = 94%]
Pressure (altimeter): 29.73 inches Hg (1007.0 mb)
Winds: from the SSE (160 degrees) at 3 MPH (3 knots; 1.5 m/s)
Visibility: 6 miles ( 9 km)
Ceiling: at least 12,000 feet AGL
Clouds: few clouds at 1500 feet AGL
scattered clouds at 16000 feet AGL
Weather: no significant weather observed at this time

METAR text: RJFO 180000Z 18003KT 8000 FEW015 SCT160 BKN/// 27/26 Q1007
Conditions at: RJFO (OITA AIRPORT , JP) observed 0000 UTC 18 August 2019
Temperature: 27.0°C (81°F)
Dewpoint: 26.0°C (79°F) [RH = 94%]
Pressure (altimeter): 29.73 inches Hg (1007.0 mb)
Winds: from the S (180 degrees) at 3 MPH (3 knots; 1.5 m/s)
Visibility: 5 miles ( 8 km)
Ceiling: at least 12,000 feet AGL
Clouds: few clouds at 1500 feet AGL
scattered clouds at 16000 feet AGL
Weather: no significant weather observed at this time

METAR text: RJFO 172300Z 23002KT 8000 FEW015 SCT170 BKN/// 27/25 Q1006
Conditions at: RJFO (OITA AIRPORT , JP) observed 2300 UTC 17 August 2019
Temperature: 27.0°C (81°F)
Dewpoint: 25.0°C (77°F) [RH = 89%]
Pressure (altimeter): 29.70 inches Hg (1006.0 mb)
Winds: from the SW (230 degrees) at 2 MPH (2 knots; 1.0 m/s)
Visibility: 5 miles ( 8 km)
Ceiling: at least 12,000 feet AGL
Clouds: few clouds at 1500 feet AGL
scattered clouds at 17000 feet AGL
Weather: no significant weather observed at this time

METAR text: RJFO 172200Z VRB01KT 7000 FEW015 SCT170 BKN/// 26/25 Q1006
Conditions at: RJFO (OITA AIRPORT , JP) observed 2200 UTC 17 August 2019
Temperature: 26.0°C (79°F)
Dewpoint: 25.0°C (77°F) [RH = 94%]
Pressure (altimeter): 29.70 inches Hg (1006.0 mb)
Winds: variable direction winds at 1 MPH (1 knots; 0.5 m/s)
Visibility: 4 miles ( 7 km)
Ceiling: at least 12,000 feet AGL
Clouds: few clouds at 1500 feet AGL
scattered clouds at 17000 feet AGL
Weather: no significant weather observed at this time

Forecast for: RJFO (OITA AIRPORT , JP)
Text: TAF RJFO 190506Z 1906/2012 06005KT 8000 -SHRA FEW008 SCT010 BKN015
Forecast period: 0600 to 1400 UTC 19 August 2019
Forecast type: FROM: standard forecast or significant change
Winds: from the ENE (60 degrees) at 6 MPH (5 knots; 2.6 m/s)
Visibility: 5 miles (8 km)
Ceiling: 1500 feet AGL
Clouds: few clouds at 800 feet AGL
scattered clouds at 1000 feet AGL
broken clouds at 1500 feet AGL
Weather: -SHRA  (light rain showers)
Text: TEMPO 1906/1915 4000 -SHRA BR FEW005 BKN008 BKN010
Forecast period: 0600 to 1500 UTC 19 August 2019
Forecast type: TEMPORARY: The following changes expected for less than half the time period
Visibility: 2.49 miles (4.01 km)
Ceiling: 800 feet AGL
Clouds: few clouds at 500 feet AGL
broken clouds at 800 feet AGL
broken clouds at 1000 feet AGL
Weather: -SHRA BR  (light rain showers, mist)
Text: BECMG 1914/1916 18006KT
Forecast period: 1400 UTC 19 August 2019 to 0000 UTC 20 August 2019
Forecast type: BECOMING: Conditions expected to become as follows by 1600 UTC 19 August 2019
Winds: from the S (180 degrees) at 7 MPH (6 knots; 3.1 m/s)
Visibility: 5 miles (8 km)
Ceiling: 1500 feet AGL
Clouds: few clouds at 800 feet AGL
scattered clouds at 1000 feet AGL
broken clouds at 1500 feet AGL
Weather: -SHRA  (light rain showers)
Text: TEMPO 1915/2000 3000 SHRA BR FEW003 BKN005 BKN010
Forecast period: 1500 UTC 19 August 2019 to 0000 UTC 20 August 2019
Forecast type: TEMPORARY: The following changes expected for less than half the time period
Visibility: 1.86 miles (2.99 km)
Ceiling: 500 feet AGL
Clouds: few clouds at 300 feet AGL
broken clouds at 500 feet AGL
broken clouds at 1000 feet AGL
Weather: SHRA BR  (rain showers, mist)
Text: BECMG 2000/2003 08003KT
Forecast period: 0000 to 1200 UTC 20 August 2019
Forecast type: BECOMING: Conditions expected to become as follows by 0300 UTC 20 August 2019
Winds: from the E (80 degrees) at 3 MPH (3 knots; 1.5 m/s)
Visibility: 5 miles (8 km)
Ceiling: 1500 feet AGL
Clouds: few clouds at 800 feet AGL
scattered clouds at 1000 feet AGL
broken clouds at 1500 feet AGL
Weather: -SHRA  (light rain showers)